createdAt,value
2019-03-15T00:00:34.551Z,99.99
2019-03-15T00:01:35.120Z,99.99
2019-03-15T00:02:35.691Z,99.99
2019-03-15T00:03:36.260Z,99.99
2019-03-15T00:04:39.808Z,99.99
2019-03-15T00:05:38.446Z,99.99
2019-03-15T00:06:39.016Z,99.99
2019-03-15T00:07:39.637Z,99.99
2019-03-15T00:08:40.205Z,99.99
2019-03-15T00:09:40.781Z,99.99
2019-03-15T00:10:41.403Z,99.99
2019-03-15T00:11:42.023Z,99.99
2019-03-15T00:12:42.595Z,99.99
2019-03-15T00:13:43.219Z,99.99
2019-03-15T00:14:43.794Z,99.99
2019-03-15T00:15:44.542Z,99.99
2019-03-15T00:16:45.218Z,99.99
2019-03-15T00:17:45.740Z,99.99
2019-03-15T00:18:46.984Z,99.99
2019-03-15T00:19:47.553Z,99.99
2019-03-15T00:20:48.123Z,99.99
2019-03-15T00:21:48.748Z,99.99
2019-03-15T00:22:49.318Z,99.99
2019-03-15T00:23:49.937Z,99.99
2019-03-15T00:24:50.609Z,99.99
2019-03-15T00:25:51.181Z,99.99
2019-03-15T00:26:51.794Z,99.99
2019-03-15T00:27:52.318Z,99.99
2019-03-15T00:28:52.886Z,99.99
2019-03-15T00:29:53.457Z,99.99
2019-03-15T00:30:54.073Z,99.99
2019-03-15T00:31:54.650Z,99.99
2019-03-15T00:32:55.263Z,99.99
2019-03-15T00:33:55.936Z,99.99
2019-03-15T00:34:56.497Z,99.99
2019-03-15T00:35:57.070Z,99.99
2019-03-15T00:36:57.637Z,99.99
2019-03-15T00:37:58.254Z,99.99
2019-03-15T00:38:58.823Z,99.99
2019-03-15T00:39:59.497Z,99.99
2019-03-15T00:41:00.062Z,99.99
2019-03-15T00:42:00.630Z,99.99
2019-03-15T00:43:01.200Z,99.99
2019-03-15T00:44:01.770Z,99.99
2019-03-15T00:45:02.439Z,99.99
2019-03-15T00:46:03.008Z,99.99
2019-03-15T00:47:03.580Z,99.99
2019-03-15T00:48:04.147Z,99.99
2019-03-15T00:49:04.717Z,99.99
2019-03-15T00:50:05.333Z,99.99
2019-03-15T00:51:05.907Z,99.99
2019-03-15T00:52:06.562Z,99.99
2019-03-15T00:53:07.129Z,99.99
2019-03-15T00:54:07.748Z,99.99
2019-03-15T00:55:08.317Z,99.99
2019-03-15T00:56:08.883Z,99.99
2019-03-15T00:57:09.452Z,99.99
2019-03-15T00:58:10.071Z,99.99
2019-03-15T00:59:10.638Z,99.99
2019-03-15T01:00:11.209Z,99.99
2019-03-15T01:01:11.776Z,99.99
2019-03-15T01:02:12.345Z,99.99
2019-03-15T01:03:12.914Z,99.99
2019-03-15T01:04:13.504Z,99.99
2019-03-15T01:05:14.095Z,99.99
2019-03-15T01:06:14.663Z,99.99
2019-03-15T01:07:15.230Z,99.99
2019-03-15T01:08:15.798Z,99.99
2019-03-15T01:09:16.369Z,99.99
2019-03-15T01:10:16.938Z,99.99
2019-03-15T01:11:17.507Z,99.99
2019-03-15T01:12:18.075Z,99.99
2019-03-15T01:13:18.642Z,99.99
2019-03-15T01:14:19.260Z,99.99
2019-03-15T01:15:19.826Z,99.99
2019-03-15T01:16:20.444Z,99.99
2019-03-15T01:17:21.063Z,99.99
2019-03-15T01:18:21.683Z,99.99
2019-03-15T01:19:22.403Z,99.99
2019-03-15T01:20:22.971Z,99.99
2019-03-15T01:21:23.541Z,99.99
2019-03-15T01:22:24.108Z,99.99
2019-03-15T01:23:24.675Z,99.99
2019-03-15T01:24:25.244Z,99.99
2019-03-15T01:25:25.810Z,99.99
2019-03-15T01:26:26.441Z,99.99
2019-03-15T01:27:26.954Z,99.99
2019-03-15T01:28:27.523Z,99.99
2019-03-15T01:29:28.092Z,99.99
2019-03-15T01:30:28.661Z,99.99
2019-03-15T01:31:29.236Z,99.99
2019-03-15T01:32:29.842Z,99.99
2019-03-15T01:33:30.408Z,99.99
2019-03-15T01:34:31.028Z,99.99
2019-03-15T01:35:33.796Z,99.99
2019-03-15T01:36:32.258Z,99.99
2019-03-15T01:37:32.826Z,99.99
2019-03-15T01:38:33.399Z,99.99
2019-03-15T01:39:33.968Z,99.99
2019-03-15T01:40:34.657Z,99.99
2019-03-15T01:41:35.227Z,99.99
2019-03-15T01:42:35.796Z,99.99
2019-03-15T01:43:36.362Z,99.99
2019-03-15T01:44:36.942Z,99.99
2019-03-15T01:45:37.540Z,99.99
2019-03-15T01:46:38.105Z,99.99
2019-03-15T01:47:38.676Z,99.99
2019-03-15T01:48:39.242Z,99.99
2019-03-15T01:49:39.811Z,99.99
2019-03-15T01:50:40.376Z,99.99
2019-03-15T01:51:41.430Z,99.99
2019-03-15T01:52:42.104Z,99.99
2019-03-15T01:53:42.669Z,99.99
2019-03-15T01:54:43.236Z,99.99
2019-03-15T01:55:43.803Z,99.99
2019-03-15T01:56:44.423Z,99.99
2019-03-15T01:57:44.991Z,99.99
2019-03-15T01:58:45.559Z,99.99
2019-03-15T01:59:46.126Z,99.99
2019-03-15T02:00:46.696Z,99.99
2019-03-15T02:01:47.415Z,99.99
2019-03-15T02:02:48.503Z,99.99
2019-03-15T02:03:49.069Z,99.99
2019-03-15T02:04:49.685Z,99.99
2019-03-15T02:05:50.255Z,99.99
2019-03-15T02:06:50.904Z,99.99
2019-03-15T02:07:51.472Z,99.99
2019-03-15T02:08:52.517Z,99.99
2019-03-15T02:09:53.101Z,99.99
2019-03-15T02:10:53.665Z,99.99
2019-03-15T02:11:54.235Z,99.99
2019-03-15T02:12:54.814Z,99.99
2019-03-15T02:13:55.415Z,99.99
2019-03-15T02:14:55.982Z,99.99
2019-03-15T02:15:56.547Z,99.99
2019-03-15T02:16:57.116Z,99.99
2019-03-15T02:17:57.734Z,99.99
2019-03-15T02:18:58.306Z,99.99
2019-03-15T02:19:58.919Z,99.99
2019-03-15T02:20:59.636Z,99.99
2019-03-15T02:22:00.255Z,99.99
2019-03-15T02:23:00.824Z,99.99
2019-03-15T02:24:01.390Z,99.99
2019-03-15T02:25:02.158Z,99.99
2019-03-15T02:26:02.725Z,99.99
2019-03-15T02:27:03.297Z,99.99
2019-03-15T02:28:04.101Z,99.99
2019-03-15T02:29:04.659Z,99.99
2019-03-15T02:30:05.225Z,99.99
2019-03-15T02:31:05.834Z,99.99
2019-03-15T02:32:06.402Z,99.99
2019-03-15T02:33:06.971Z,99.99
2019-03-15T02:34:07.542Z,99.99
2019-03-15T02:35:08.164Z,99.99
2019-03-15T02:36:08.733Z,99.99
2019-03-15T02:37:09.338Z,99.99
2019-03-15T02:38:10.164Z,99.99
2019-03-15T02:39:10.718Z,99.99
2019-03-15T02:40:11.336Z,99.99
2019-03-15T02:41:11.905Z,99.99
2019-03-15T02:42:12.476Z,99.82
2019-03-15T02:43:13.085Z,99.99
2019-03-15T02:44:13.652Z,99.99
2019-03-15T02:45:14.221Z,99.99
2019-03-15T02:46:14.790Z,99.99
2019-03-15T02:47:15.357Z,99.99
2019-03-15T02:48:15.927Z,99.99
2019-03-15T02:49:16.495Z,99.99
2019-03-15T02:50:17.119Z,99.99
2019-03-15T02:51:17.723Z,99.91
2019-03-15T02:52:18.291Z,99.99
2019-03-15T02:53:18.898Z,99.99
2019-03-15T02:54:19.474Z,99.99
2019-03-15T02:55:21.068Z,99.99
2019-03-15T02:56:21.595Z,99.99
2019-03-15T02:57:22.164Z,99.99
2019-03-15T02:58:22.730Z,99.99
2019-03-15T02:59:23.297Z,99.99
2019-03-15T03:00:23.864Z,99.99
2019-03-15T03:01:24.432Z,99.99
2019-03-15T03:02:25.003Z,99.99
2019-03-15T03:03:25.724Z,99.99
2019-03-15T03:04:26.343Z,99.99
2019-03-15T03:05:26.901Z,99.99
2019-03-15T03:06:28.028Z,99.99
2019-03-15T03:07:29.019Z,99.91
2019-03-15T03:08:29.629Z,99.99
2019-03-15T03:09:30.247Z,99.99
2019-03-15T03:10:30.817Z,99.82
2019-03-15T03:11:31.383Z,99.99
2019-03-15T03:12:31.960Z,99.99
2019-03-15T03:13:32.519Z,99.99
2019-03-15T03:14:33.088Z,99.99
2019-03-15T03:15:33.668Z,99.99
2019-03-15T03:16:34.276Z,99.99
2019-03-15T03:17:34.836Z,99.99
2019-03-15T03:18:35.453Z,99.99
2019-03-15T03:19:36.019Z,99.99
2019-03-15T03:20:36.605Z,99.99
2019-03-15T03:21:37.153Z,99.99
2019-03-15T03:22:37.770Z,99.99
2019-03-15T03:23:38.340Z,99.99
2019-03-15T03:24:38.996Z,99.99
2019-03-15T03:25:39.565Z,99.99
2019-03-15T03:26:40.441Z,99.91
2019-03-15T03:27:41.034Z,99.99
2019-03-15T03:28:41.689Z,99.99
2019-03-15T03:29:42.268Z,99.99
2019-03-15T03:30:45.810Z,99.99
2019-03-15T03:31:45.522Z,99.99
2019-03-15T03:32:45.943Z,99.99
2019-03-15T03:33:46.561Z,99.99
2019-03-15T03:34:47.129Z,99.99
2019-03-15T03:35:47.735Z,99.99
2019-03-15T03:36:48.303Z,99.99
2019-03-15T03:37:49.044Z,99.99
2019-03-15T03:38:49.636Z,99.99
2019-03-15T03:39:50.205Z,99.99
2019-03-15T03:40:50.838Z,99.99
2019-03-15T03:41:51.390Z,99.99
2019-03-15T03:42:52.008Z,99.99
2019-03-15T03:43:52.576Z,99.99
2019-03-15T03:44:53.194Z,99.99
2019-03-15T03:45:53.763Z,99.99
2019-03-15T03:46:54.331Z,99.99
2019-03-15T03:47:54.941Z,99.99
2019-03-15T03:48:55.509Z,99.99
2019-03-15T03:49:56.077Z,99.99
2019-03-15T03:50:59.832Z,99.99
2019-03-15T03:51:58.217Z,99.99
2019-03-15T03:52:58.917Z,99.99
2019-03-15T03:54:00.108Z,99.99
2019-03-15T03:55:00.677Z,99.99
2019-03-15T03:56:01.332Z,99.99
2019-03-15T03:57:01.924Z,99.99
2019-03-15T03:58:02.581Z,99.99
2019-03-15T03:59:03.121Z,99.99
2019-03-15T04:00:03.688Z,99.99
2019-03-15T04:01:07.411Z,99.99
2019-03-15T04:02:05.815Z,99.99
2019-03-15T04:03:06.410Z,99.99
2019-03-15T04:04:06.950Z,99.99
2019-03-15T04:05:07.568Z,99.99
2019-03-15T04:06:08.140Z,99.99
2019-03-15T04:07:08.843Z,99.99
2019-03-15T04:08:09.426Z,99.99
2019-03-15T04:09:09.993Z,99.99
2019-03-15T04:10:10.568Z,99.99
2019-03-15T04:11:11.130Z,99.99
2019-03-15T04:12:11.699Z,99.99
2019-03-15T04:13:13.479Z,99.99
2019-03-15T04:14:14.097Z,99.99
2019-03-15T04:15:14.663Z,99.99
2019-03-15T04:16:15.231Z,99.99
2019-03-15T04:17:15.799Z,99.99
2019-03-15T04:18:16.366Z,99.99
2019-03-15T04:19:16.985Z,99.99
2019-03-15T04:20:17.656Z,99.99
2019-03-15T04:21:18.180Z,99.99
2019-03-15T04:22:18.748Z,99.99
2019-03-15T04:23:19.365Z,99.99
2019-03-15T04:24:19.980Z,99.99
2019-03-15T04:25:20.547Z,99.99
2019-03-15T04:26:21.127Z,99.99
2019-03-15T04:27:21.724Z,99.99
2019-03-15T04:28:22.494Z,99.99
2019-03-15T04:29:23.057Z,99.99
2019-03-15T04:30:23.626Z,99.99
2019-03-15T04:31:24.244Z,99.99
2019-03-15T04:32:24.852Z,99.99
2019-03-15T04:33:25.476Z,99.99
2019-03-15T04:34:28.423Z,99.99
2019-03-15T04:35:27.646Z,99.99
2019-03-15T04:36:28.215Z,99.99
2019-03-15T04:37:28.784Z,99.99
2019-03-15T04:38:29.349Z,99.99
2019-03-15T04:39:29.965Z,99.99
2019-03-15T04:40:30.533Z,99.99
2019-03-15T04:41:31.103Z,99.99
2019-03-15T04:42:31.669Z,99.99
2019-03-15T04:43:32.299Z,99.99
2019-03-15T04:44:32.900Z,99.99
2019-03-15T04:45:33.485Z,99.99
2019-03-15T04:46:34.080Z,99.99
2019-03-15T04:47:34.646Z,99.99
2019-03-15T04:48:35.242Z,99.99
2019-03-15T04:49:35.862Z,99.99
2019-03-15T04:50:36.429Z,99.99
2019-03-15T04:51:37.086Z,99.99
2019-03-15T04:52:37.705Z,99.99
2019-03-15T04:53:38.421Z,99.99
2019-03-15T04:54:39.041Z,99.99
2019-03-15T04:55:39.609Z,99.99
2019-03-15T04:56:40.181Z,99.99
2019-03-15T04:57:40.743Z,99.99
2019-03-15T04:58:41.365Z,99.99
2019-03-15T04:59:41.930Z,99.99
2019-03-15T05:00:42.498Z,99.99
2019-03-15T05:01:43.069Z,99.99
2019-03-15T05:02:43.684Z,99.99
2019-03-15T05:03:44.252Z,99.99
2019-03-15T05:04:44.820Z,99.99
2019-03-15T05:05:45.388Z,99.99
2019-03-15T05:06:45.955Z,99.99
2019-03-15T05:07:46.522Z,99.99
2019-03-15T05:08:47.139Z,99.99
2019-03-15T05:09:47.707Z,99.99
2019-03-15T05:10:48.277Z,99.99
2019-03-15T05:11:48.842Z,99.99
2019-03-15T05:12:49.412Z,99.99
2019-03-15T05:13:49.980Z,99.99
2019-03-15T05:14:50.739Z,99.99
2019-03-15T05:15:51.307Z,99.99
2019-03-15T05:16:51.922Z,99.99
2019-03-15T05:17:52.494Z,99.99
2019-03-15T05:18:53.055Z,99.99
2019-03-15T05:19:53.622Z,99.99
2019-03-15T05:20:54.208Z,99.99
2019-03-15T05:21:54.754Z,99.38
2019-03-15T05:22:55.323Z,99.99
2019-03-15T05:23:55.889Z,99.99
2019-03-15T05:24:56.455Z,99.38
2019-03-15T05:25:57.021Z,99.99
2019-03-15T05:26:57.588Z,99.99
2019-03-15T05:27:58.154Z,99.99
2019-03-15T05:28:58.721Z,99.99
2019-03-15T05:29:59.290Z,99.19
2019-03-15T05:30:59.907Z,99.99
2019-03-15T05:32:00.524Z,99.99
2019-03-15T05:33:01.091Z,99.99
2019-03-15T05:34:01.710Z,99.99
2019-03-15T05:35:02.320Z,99.99
2019-03-15T05:36:02.889Z,99.99
2019-03-15T05:37:03.452Z,99.99
2019-03-15T05:38:04.070Z,99.99
2019-03-15T05:39:04.639Z,99.96
2019-03-15T05:40:05.208Z,99.87
2019-03-15T05:41:05.815Z,99.99
2019-03-15T05:42:06.383Z,99.99
2019-03-15T05:43:06.951Z,99.99
2019-03-15T05:44:07.517Z,99.99
2019-03-15T05:45:08.086Z,99.99
2019-03-15T05:46:08.653Z,99.99
2019-03-15T05:47:09.221Z,99.24
2019-03-15T05:48:09.837Z,99.19
2019-03-15T05:49:10.405Z,99.99
2019-03-15T05:50:10.971Z,98.95
2019-03-15T05:51:11.541Z,99.91
2019-03-15T05:52:12.105Z,99.99
2019-03-15T05:53:12.671Z,99.99
2019-03-15T05:54:13.237Z,99.99
2019-03-15T05:55:13.808Z,99.19
2019-03-15T05:56:14.415Z,99.81
2019-03-15T05:57:14.981Z,99.99
2019-03-15T05:58:15.597Z,99.43
2019-03-15T05:59:29.928Z,99.99
2019-03-15T06:00:30.497Z,99.99
2019-03-15T06:01:31.063Z,99.72
2019-03-15T06:02:31.631Z,98.95
2019-03-15T06:03:32.200Z,99.99
2019-03-15T06:04:32.764Z,98.86
2019-03-15T06:05:33.331Z,99.99
2019-03-15T06:06:33.946Z,99.99
2019-03-15T06:07:34.514Z,99.99
2019-03-15T06:08:35.126Z,99.52
2019-03-15T06:09:35.690Z,99.15
2019-03-15T06:10:36.261Z,99.99
2019-03-15T06:11:36.826Z,99.99
2019-03-15T06:12:37.389Z,99.99
2019-03-15T06:13:37.956Z,99.99
2019-03-15T06:14:38.524Z,99.99
2019-03-15T06:15:39.139Z,99.38
2019-03-15T06:16:39.757Z,98.86
2019-03-15T06:17:40.328Z,99.99
2019-03-15T06:18:40.942Z,98.95
2019-03-15T06:19:41.508Z,99.99
2019-03-15T06:20:42.077Z,99.81
2019-03-15T06:21:42.640Z,99.91
2019-03-15T06:22:43.257Z,99.99
2019-03-15T06:23:43.825Z,99.99
2019-03-15T06:24:44.445Z,99.99
2019-03-15T06:25:45.011Z,99.99
2019-03-15T06:26:45.578Z,99.99
2019-03-15T06:27:46.145Z,99.99
2019-03-15T06:28:46.842Z,99.99
2019-03-15T06:29:47.367Z,99.99
2019-03-15T06:30:47.984Z,99.81
2019-03-15T06:31:48.600Z,99.67
2019-03-15T06:32:49.368Z,99.99
2019-03-15T06:33:49.988Z,99.99
2019-03-15T06:34:50.550Z,99.99
2019-03-15T06:35:51.118Z,99.15
2019-03-15T06:36:51.687Z,99.99
2019-03-15T06:37:52.450Z,98.95
2019-03-15T06:38:53.016Z,99.99
2019-03-15T06:39:53.581Z,99.43
2019-03-15T06:40:54.254Z,99.99
2019-03-15T06:41:54.825Z,99.99
2019-03-15T06:42:55.423Z,99.24
2019-03-15T06:43:55.991Z,99.99
2019-03-15T06:44:58.199Z,98.57
2019-03-15T06:45:58.118Z,99.33
2019-03-15T06:46:58.685Z,98.95
2019-03-15T06:47:59.249Z,98.76
2019-03-15T06:48:59.867Z,99.81
2019-03-15T06:50:00.439Z,99.33
2019-03-15T06:51:01.051Z,98.76
2019-03-15T06:52:01.672Z,99.81
2019-03-15T06:53:02.241Z,98.86
2019-03-15T06:54:11.417Z,98.86
2019-03-15T06:55:05.461Z,98.86
2019-03-15T06:56:05.068Z,99.33
2019-03-15T06:57:06.552Z,99.15
2019-03-15T06:58:07.168Z,99.62
2019-03-15T06:59:07.745Z,99.62
2019-03-15T07:00:08.316Z,98.38
2019-03-15T07:01:08.892Z,99.81
2019-03-15T07:02:09.466Z,99.15
2019-03-15T07:03:10.040Z,99.52
2019-03-15T07:04:10.613Z,98.38
2019-03-15T07:05:12.263Z,98.86
2019-03-15T07:06:12.754Z,98.76
2019-03-15T07:07:15.180Z,98.09
2019-03-15T07:08:14.942Z,98.76
2019-03-15T07:09:15.514Z,98.38
2019-03-15T07:10:16.091Z,98.66
2019-03-15T07:11:16.665Z,98.09
2019-03-15T07:12:17.284Z,99.33
2019-03-15T07:13:17.858Z,99.72
2019-03-15T07:14:18.431Z,99.99
2019-03-15T07:15:19.053Z,99.81
2019-03-15T07:16:19.826Z,99.33
2019-03-15T07:17:20.445Z,99.99
2019-03-15T07:18:21.022Z,99.99
2019-03-15T07:19:27.545Z,99.15
2019-03-15T07:20:22.254Z,98.47
2019-03-15T07:21:22.822Z,98.76
2019-03-15T07:22:23.395Z,99.43
2019-03-15T07:23:23.967Z,98.95
2019-03-15T07:24:25.743Z,99.43
2019-03-15T07:25:26.109Z,99.52
2019-03-15T07:26:26.686Z,99.52
2019-03-15T07:27:27.251Z,99.52
2019-03-15T07:28:27.823Z,99.33
2019-03-15T07:29:28.395Z,99.99
2019-03-15T07:30:28.969Z,99.99
2019-03-15T07:31:29.540Z,99.99
2019-03-15T07:32:31.063Z,99.91
2019-03-15T07:33:31.679Z,98.76
2019-03-15T07:34:32.260Z,99.99
2019-03-15T07:35:33.525Z,99.99
2019-03-15T07:36:37.119Z,99.99
2019-03-15T07:37:35.772Z,99.99
2019-03-15T07:38:36.343Z,99.99
2019-03-15T07:39:36.912Z,99.99
2019-03-15T07:40:37.533Z,99.91
2019-03-15T07:41:39.249Z,99.99
2019-03-15T07:42:39.670Z,99.99
2019-03-15T07:43:40.241Z,99.99
2019-03-15T07:44:40.811Z,99.99
2019-03-15T07:45:41.431Z,99.99
2019-03-15T07:46:42.002Z,99.99
2019-03-15T07:47:42.574Z,99.33
2019-03-15T07:48:43.173Z,99.43
2019-03-15T07:49:43.715Z,99.72
2019-03-15T07:50:44.288Z,98.33
2019-03-15T07:51:44.862Z,99.99
2019-03-15T07:52:45.473Z,99.99
2019-03-15T07:53:46.094Z,99.99
2019-03-15T07:54:46.669Z,99.99
2019-03-15T07:55:47.290Z,99.99
2019-03-15T07:56:47.863Z,99.99
2019-03-15T07:57:48.438Z,99.99
2019-03-15T07:58:49.059Z,99.99
2019-03-15T07:59:49.679Z,99.99
2019-03-15T08:00:50.254Z,99.99
2019-03-15T08:01:52.720Z,99.99
2019-03-15T08:02:52.391Z,99.99
2019-03-15T08:03:52.965Z,99.99
2019-03-15T08:04:53.537Z,99.99
2019-03-15T08:05:54.113Z,99.99
2019-03-15T08:06:54.685Z,99.99
2019-03-15T08:10:38.160Z,99.99
2019-03-15T08:11:38.775Z,99.99
2019-03-15T08:12:39.396Z,99.99
2019-03-15T08:13:39.955Z,99.99
2019-03-15T08:15:18.307Z,99.99
2019-03-15T08:16:18.870Z,99.99
2019-03-15T08:17:19.434Z,99.99
2019-03-15T08:18:19.999Z,99.99
2019-03-15T08:19:20.565Z,99.99
2019-03-15T08:20:21.180Z,99.99
2019-03-15T08:40:47.064Z,99.99
2019-03-15T08:41:47.639Z,99.99
2019-03-15T08:42:48.253Z,99.99
2019-03-15T08:50:15.522Z,99.99
2019-03-15T08:51:15.342Z,99.99
2019-03-15T09:15:23.483Z,99.99
2019-03-15T09:16:24.099Z,99.99
2019-03-15T09:17:24.662Z,99.99
2019-03-15T09:18:25.229Z,99.99
2019-03-15T09:19:25.844Z,99.99
2019-03-15T09:20:30.145Z,99.99
2019-03-15T09:23:07.227Z,99.99
2019-03-15T09:24:07.792Z,99.99
2019-03-15T09:27:04.837Z,99.99
2019-03-15T09:28:05.403Z,99.99
2019-03-15T09:29:05.968Z,99.99
2019-03-15T09:30:06.585Z,99.99
2019-03-15T09:31:07.688Z,99.99
2019-03-15T09:32:09.386Z,99.99
2019-03-15T09:33:09.999Z,99.99
2019-03-15T09:34:10.617Z,99.99
2019-03-15T09:35:11.383Z,99.99
2019-03-15T09:45:35.762Z,99.99
2019-03-15T09:46:36.379Z,99.99
2019-03-15T09:47:36.945Z,99.99
2019-03-15T09:48:37.561Z,99.99
2019-03-15T09:49:38.127Z,99.99
2019-03-15T09:50:50.594Z,99.99
2019-03-15T09:51:40.304Z,99.99
2019-03-15T09:57:08.682Z,99.99
2019-03-15T09:58:09.253Z,99.99
2019-03-15T09:59:09.857Z,99.99
2019-03-15T10:00:10.475Z,99.99
2019-03-15T10:11:28.257Z,99.99
2019-03-15T10:12:28.914Z,99.99
2019-03-15T10:13:29.480Z,99.99
2019-03-15T10:14:30.046Z,99.99
2019-03-15T10:20:58.136Z,99.99
2019-03-15T10:21:58.683Z,99.99
2019-03-15T10:23:05.902Z,99.99
2019-03-15T10:24:00.807Z,99.99
2019-03-15T10:25:01.373Z,99.99
2019-03-15T10:54:30.759Z,99.99
2019-03-15T10:59:53.457Z,99.99
2019-03-15T11:00:54.073Z,99.99
2019-03-15T11:01:54.638Z,99.99
2019-03-15T11:02:55.255Z,99.99
2019-03-15T11:03:55.877Z,99.99
2019-03-15T11:06:25.769Z,99.99
2019-03-15T11:22:33.268Z,99.99
2019-03-15T11:38:28.930Z,99.99
2019-03-15T11:39:29.547Z,99.99
2019-03-15T11:40:30.111Z,99.99
2019-03-15T11:41:30.730Z,99.99
2019-03-15T13:18:40.803Z,99.99
2019-03-15T13:19:54.211Z,99.99
2019-03-15T13:20:43.040Z,99.99
2019-03-15T13:21:43.680Z,99.99
2019-03-15T13:22:44.343Z,99.99
2019-03-15T13:23:44.915Z,99.99
2019-03-15T13:24:45.488Z,99.99
2019-03-15T13:25:46.112Z,99.39
2019-03-15T13:26:46.685Z,99.99
2019-03-15T13:27:47.258Z,99.99
2019-03-15T13:28:47.829Z,99.99
2019-03-15T13:29:48.454Z,99.99
2019-03-15T13:30:49.027Z,99.99
2019-03-15T13:31:49.602Z,99.96
2019-03-15T13:32:50.176Z,99.99
2019-03-15T13:33:50.853Z,99.99
2019-03-15T13:34:51.427Z,99.99
2019-03-15T13:35:52.006Z,99.99
2019-03-15T13:36:52.791Z,99.99
2019-03-15T13:37:53.501Z,99.99
2019-03-15T13:38:54.125Z,99.99
2019-03-15T13:39:54.855Z,99.96
2019-03-15T13:40:55.427Z,99.99
2019-03-15T13:41:56.005Z,99.58
2019-03-15T13:42:56.580Z,99.58
2019-03-15T13:43:57.157Z,99.29
2019-03-15T13:44:57.812Z,99.99
2019-03-15T13:45:58.343Z,99.99
2019-03-15T13:46:59.012Z,99.96
2019-03-15T13:47:59.584Z,99.99
2019-03-15T13:49:00.210Z,99.99
2019-03-15T13:51:02.384Z,99.87
2019-03-15T13:52:02.952Z,99.96
2019-03-15T13:53:03.529Z,99.29
2019-03-15T13:54:04.085Z,99.58
2019-03-15T13:55:04.653Z,99.87
2019-03-15T13:56:05.219Z,99.48
2019-03-15T13:57:05.938Z,99.10
2019-03-15T13:58:06.503Z,99.19
2019-03-15T13:59:07.070Z,99.01
2019-03-15T14:00:07.639Z,99.44
2019-03-15T14:01:08.255Z,99.24
2019-03-15T14:02:08.854Z,99.29
2019-03-15T14:03:09.441Z,99.34
2019-03-15T14:04:10.009Z,99.34
2019-03-15T14:05:10.628Z,99.39
2019-03-15T14:06:11.247Z,99.05
2019-03-15T14:07:11.816Z,98.43
2019-03-15T14:08:58.238Z,98.57
2019-03-15T14:09:58.851Z,98.48
2019-03-15T14:11:25.198Z,98.19
2019-03-15T14:12:26.760Z,98.48
2019-03-15T14:13:27.372Z,98.57
2019-03-15T14:14:27.941Z,98.28
2019-03-15T14:15:28.510Z,98.28
2019-03-15T14:16:29.080Z,98.38
2019-03-15T14:17:43.454Z,98.38
2019-03-15T14:20:19.249Z,97.90
2019-03-15T14:21:19.796Z,97.90
2019-03-15T14:23:22.190Z,97.42
2019-03-15T14:24:23.033Z,97.52
2019-03-15T14:25:23.600Z,97.61
2019-03-15T14:26:24.171Z,97.42
2019-03-15T14:27:36.981Z,96.85
2019-03-15T14:28:26.305Z,96.75
2019-03-15T14:34:12.996Z,96.85
2019-03-15T14:35:13.566Z,96.56
2019-03-15T14:37:41.541Z,96.66
2019-03-15T14:40:09.424Z,96.56
2019-03-15T14:41:10.147Z,96.56
2019-03-15T14:42:10.705Z,96.75
2019-03-15T14:43:11.310Z,96.94
2019-03-15T14:44:12.207Z,96.66
2019-03-15T14:48:25.428Z,96.56
2019-03-15T14:49:26.048Z,96.47
2019-03-15T14:50:26.613Z,96.51
2019-03-15T14:51:27.183Z,96.61
2019-03-15T15:22:03.902Z,95.07
2019-03-15T15:26:58.527Z,94.02
2019-03-15T15:28:04.237Z,94.69
2019-03-15T15:29:00.659Z,94.79
2019-03-15T15:30:51.032Z,94.69
2019-03-15T15:31:51.641Z,94.69
2019-03-15T15:52:03.480Z,93.01
2019-03-15T15:53:04.047Z,92.53
2019-03-15T16:27:33.120Z,91.13
2019-03-15T16:48:46.438Z,89.79
2019-03-15T16:49:47.062Z,89.60
2019-03-15T16:50:47.641Z,89.69
2019-03-15T16:51:48.219Z,89.50
2019-03-15T16:52:48.830Z,89.79
2019-03-15T16:53:49.375Z,89.79
2019-03-15T16:54:49.951Z,89.60
2019-03-15T16:55:50.577Z,90.27
2019-03-15T16:56:51.155Z,90.08
2019-03-15T16:57:51.730Z,90.17
2019-03-15T16:58:52.309Z,89.98
2019-03-15T16:59:52.883Z,90.08
2019-03-15T17:00:53.469Z,89.89
2019-03-15T17:01:54.558Z,89.69
2019-03-15T17:02:55.136Z,89.50
2019-03-15T17:03:55.767Z,88.20
2019-03-15T17:04:56.436Z,88.83
2019-03-15T17:05:57.012Z,89.02
2019-03-15T17:07:00.720Z,89.89
2019-03-15T17:07:59.161Z,89.69
2019-03-15T17:08:59.787Z,89.22
2019-03-15T17:10:00.362Z,88.59
2019-03-15T17:11:00.940Z,88.45
2019-03-15T17:12:01.568Z,88.83
2019-03-15T17:13:02.145Z,86.09
2019-03-15T17:14:02.723Z,85.51
2019-03-15T17:15:03.348Z,85.41
2019-03-15T17:16:03.973Z,86.05
2019-03-15T17:17:04.540Z,86.76
2019-03-15T17:18:05.119Z,87.19
2019-03-15T17:19:05.695Z,88.39
2019-03-15T17:20:06.271Z,89.16
2019-03-15T17:21:06.897Z,88.01
2019-03-15T17:22:07.475Z,87.43
2019-03-15T17:23:08.055Z,87.24
2019-03-15T17:24:08.628Z,87.92
2019-03-15T17:25:09.207Z,88.35
2019-03-15T17:26:09.982Z,88.30
2019-03-15T17:27:10.562Z,88.30
2019-03-15T17:28:11.136Z,88.10
2019-03-15T17:29:11.765Z,86.95
2019-03-15T17:30:12.340Z,85.03
2019-03-15T17:31:12.956Z,84.64
2019-03-15T17:32:13.532Z,83.69
2019-03-15T17:33:14.308Z,83.30
2019-03-15T17:34:14.884Z,82.82
2019-03-15T17:35:15.462Z,81.86
2019-03-15T17:36:16.038Z,82.24
2019-03-15T17:37:16.664Z,82.05
2019-03-15T17:38:17.286Z,81.86
2019-03-15T17:39:17.868Z,82.53
2019-03-15T17:40:18.442Z,82.34
2019-03-15T17:41:19.018Z,83.20
2019-03-15T17:42:19.596Z,83.69
2019-03-15T17:43:20.221Z,83.69
2019-03-15T17:44:20.801Z,82.82
2019-03-15T17:45:21.428Z,82.43
2019-03-15T17:46:22.003Z,82.53
2019-03-15T17:47:22.583Z,82.63
2019-03-15T17:48:23.159Z,82.97
2019-03-15T17:49:24.586Z,83.74
2019-03-15T17:50:25.165Z,84.22
2019-03-15T17:51:25.745Z,84.84
2019-03-15T17:52:26.316Z,84.80
2019-03-15T17:53:26.892Z,85.75
2019-03-15T17:54:27.466Z,85.85
2019-03-15T17:55:28.091Z,85.85
2019-03-15T17:56:28.718Z,85.95
2019-03-15T17:57:29.293Z,86.52
2019-03-15T17:58:29.870Z,87.19
2019-03-15T17:59:30.444Z,87.58
2019-03-15T18:00:31.071Z,88.25
2019-03-15T18:01:31.645Z,87.96
2019-03-15T18:02:32.222Z,88.73
2019-03-15T18:03:32.797Z,88.45
2019-03-15T18:04:33.374Z,88.93
2019-03-15T18:05:34.045Z,88.45
2019-03-15T18:06:34.710Z,88.73
2019-03-15T18:07:35.285Z,88.69
2019-03-15T18:08:35.863Z,89.40
2019-03-15T18:09:36.455Z,90.03
2019-03-15T18:10:37.064Z,90.70
2019-03-15T18:11:37.690Z,90.90
2019-03-15T18:12:38.266Z,90.52
2019-03-15T18:13:38.843Z,90.99
2019-03-15T18:14:39.467Z,91.09
2019-03-15T18:15:40.043Z,91.19
2019-03-15T18:16:40.620Z,91.86
2019-03-15T18:17:41.246Z,91.38
2019-03-15T18:18:41.873Z,91.86
2019-03-15T18:19:42.443Z,92.82
2019-03-15T18:20:43.023Z,93.01
2019-03-15T18:21:43.596Z,93.20
2019-03-15T18:22:44.173Z,93.30
2019-03-15T18:23:44.749Z,93.35
2019-03-15T18:24:45.324Z,94.21
2019-03-15T18:25:45.900Z,94.40
2019-03-15T18:26:46.470Z,94.49
2019-03-15T18:27:47.045Z,94.69
2019-03-15T18:28:47.618Z,94.79
2019-03-15T18:29:48.241Z,94.59
2019-03-15T18:30:48.864Z,94.98
2019-03-15T18:31:49.444Z,95.26
2019-03-15T18:32:50.060Z,95.46
2019-03-15T18:33:50.633Z,95.36
2019-03-15T18:34:51.263Z,96.13
2019-03-15T18:35:51.832Z,96.22
2019-03-15T18:36:52.406Z,95.75
2019-03-15T18:37:52.980Z,96.22
2019-03-15T18:38:53.648Z,96.03
2019-03-15T18:39:54.245Z,95.65
2019-03-15T18:40:54.807Z,96.03
2019-03-15T18:41:55.384Z,96.03
2019-03-15T18:42:56.161Z,95.94
2019-03-15T18:43:56.830Z,96.13
2019-03-15T18:44:57.407Z,96.42
2019-03-15T18:45:57.983Z,96.22
2019-03-15T18:46:58.561Z,96.80
2019-03-15T18:47:59.228Z,96.42
2019-03-15T18:48:59.805Z,96.42
2019-03-15T18:50:00.413Z,96.42
2019-03-15T18:51:01.009Z,96.80
2019-03-15T18:52:01.583Z,96.89
2019-03-15T18:53:02.206Z,97.09
2019-03-15T18:54:02.809Z,96.80
2019-03-15T18:55:03.385Z,96.61
2019-03-15T18:56:03.960Z,96.80
2019-03-15T18:57:04.534Z,96.80
2019-03-15T18:58:05.116Z,96.99
2019-03-15T18:59:05.910Z,97.19
2019-03-15T19:00:06.423Z,97.38
2019-03-15T19:01:07.087Z,97.38
2019-03-15T19:02:07.665Z,97.56
2019-03-15T19:03:08.243Z,97.38
2019-03-15T19:04:09.025Z,98.05
2019-03-15T19:05:09.655Z,98.05
2019-03-15T19:06:10.231Z,97.86
2019-03-15T19:07:10.810Z,97.86
2019-03-15T19:08:11.439Z,98.33
2019-03-15T19:09:12.166Z,98.33
2019-03-15T19:10:12.744Z,98.43